sensor_id;sensor_type;location;lat;lon;timestamp;P1;durP1;ratioP1;P2;durP2;ratioP2
11006;SDS011;8186;57.652;11.968;2023-09-12T00:00:17;35.05;;;28.25;;
11006;SDS011;8186;57.652;11.968;2023-09-12T00:02:44;36.50;;;29.48;;
11006;SDS011;8186;57.652;11.968;2023-09-12T00:05:12;37.10;;;29.15;;
11006;SDS011;8186;57.652;11.968;2023-09-12T00:07:39;36.67;;;29.30;;
11006;SDS011;8186;57.652;11.968;2023-09-12T00:10:06;39.33;;;29.40;;
11006;SDS011;8186;57.652;11.968;2023-09-12T00:12:33;36.38;;;28.95;;
11006;SDS011;8186;57.652;11.968;2023-09-12T00:15:00;35.65;;;29.25;;
11006;SDS011;8186;57.652;11.968;2023-09-12T00:17:29;39.20;;;29.17;;
11006;SDS011;8186;57.652;11.968;2023-09-12T00:19:56;35.22;;;28.70;;
11006;SDS011;8186;57.652;11.968;2023-09-12T00:22:24;34.53;;;29.52;;
11006;SDS011;8186;57.652;11.968;2023-09-12T00:24:51;38.28;;;31.98;;
11006;SDS011;8186;57.652;11.968;2023-09-12T00:27:18;36.70;;;30.42;;
11006;SDS011;8186;57.652;11.968;2023-09-12T00:29:45;37.97;;;30.98;;
11006;SDS011;8186;57.652;11.968;2023-09-12T00:32:12;40.45;;;32.30;;
11006;SDS011;8186;57.652;11.968;2023-09-12T00:34:39;44.17;;;32.95;;
11006;SDS011;8186;57.652;11.968;2023-09-12T00:37:06;43.90;;;34.08;;
11006;SDS011;8186;57.652;11.968;2023-09-12T00:39:34;46.17;;;34.60;;
11006;SDS011;8186;57.652;11.968;2023-09-12T00:42:01;45.22;;;35.22;;
11006;SDS011;8186;57.652;11.968;2023-09-12T00:44:28;43.25;;;36.47;;
11006;SDS011;8186;57.652;11.968;2023-09-12T00:46:55;47.17;;;36.75;;
11006;SDS011;8186;57.652;11.968;2023-09-12T00:49:23;42.75;;;34.30;;
11006;SDS011;8186;57.652;11.968;2023-09-12T00:51:50;44.22;;;35.90;;
11006;SDS011;8186;57.652;11.968;2023-09-12T00:54:17;46.08;;;37.08;;
11006;SDS011;8186;57.652;11.968;2023-09-12T00:56:45;45.05;;;37.28;;
11006;SDS011;8186;57.652;11.968;2023-09-12T00:59:12;52.55;;;38.33;;
11006;SDS011;8186;57.652;11.968;2023-09-12T01:01:40;49.58;;;39.65;;
11006;SDS011;8186;57.652;11.968;2023-09-12T01:04:07;50.95;;;37.67;;
11006;SDS011;8186;57.652;11.968;2023-09-12T01:06:34;45.22;;;36.90;;
11006;SDS011;8186;57.652;11.968;2023-09-12T01:09:01;45.47;;;36.97;;
11006;SDS011;8186;57.652;11.968;2023-09-12T01:11:28;47.15;;;37.67;;
11006;SDS011;8186;57.652;11.968;2023-09-12T01:13:57;52.83;;;38.42;;
11006;SDS011;8186;57.652;11.968;2023-09-12T01:16:24;55.53;;;40.72;;
11006;SDS011;8186;57.652;11.968;2023-09-12T01:18:51;48.30;;;38.88;;
11006;SDS011;8186;57.652;11.968;2023-09-12T01:24:13;54.92;;;41.05;;
11006;SDS011;8186;57.652;11.968;2023-09-12T01:27:10;55.97;;;41.20;;
11006;SDS011;8186;57.652;11.968;2023-09-12T01:29:44;60.40;;;42.28;;
11006;SDS011;8186;57.652;11.968;2023-09-12T01:32:13;58.78;;;40.55;;
11006;SDS011;8186;57.652;11.968;2023-09-12T01:34:56;57.88;;;44.28;;
11006;SDS011;8186;57.652;11.968;2023-09-12T01:37:24;60.10;;;42.78;;
11006;SDS011;8186;57.652;11.968;2023-09-12T01:39:51;65.45;;;46.97;;
11006;SDS011;8186;57.652;11.968;2023-09-12T01:42:18;63.03;;;45.75;;
11006;SDS011;8186;57.652;11.968;2023-09-12T01:44:49;61.70;;;46.95;;
11006;SDS011;8186;57.652;11.968;2023-09-12T01:47:17;65.50;;;46.97;;
11006;SDS011;8186;57.652;11.968;2023-09-12T01:49:45;60.45;;;46.42;;
11006;SDS011;8186;57.652;11.968;2023-09-12T01:52:15;59.05;;;46.15;;
11006;SDS011;8186;57.652;11.968;2023-09-12T01:54:43;62.17;;;46.25;;
11006;SDS011;8186;57.652;11.968;2023-09-12T01:57:11;62.20;;;47.75;;
11006;SDS011;8186;57.652;11.968;2023-09-12T01:59:39;61.33;;;45.90;;
11006;SDS011;8186;57.652;11.968;2023-09-12T02:02:05;68.63;;;47.65;;
11006;SDS011;8186;57.652;11.968;2023-09-12T02:04:32;56.15;;;45.15;;
11006;SDS011;8186;57.652;11.968;2023-09-12T02:06:59;63.65;;;46.45;;
11006;SDS011;8186;57.652;11.968;2023-09-12T02:09:28;58.65;;;44.53;;
11006;SDS011;8186;57.652;11.968;2023-09-12T02:11:54;69.45;;;49.28;;
11006;SDS011;8186;57.652;11.968;2023-09-12T02:14:21;66.45;;;47.58;;
11006;SDS011;8186;57.652;11.968;2023-09-12T02:16:48;67.18;;;47.25;;
11006;SDS011;8186;57.652;11.968;2023-09-12T02:19:15;60.60;;;45.78;;
11006;SDS011;8186;57.652;11.968;2023-09-12T02:21:42;54.85;;;44.33;;
11006;SDS011;8186;57.652;11.968;2023-09-12T02:24:09;60.35;;;47.63;;
11006;SDS011;8186;57.652;11.968;2023-09-12T02:26:37;56.65;;;45.03;;
11006;SDS011;8186;57.652;11.968;2023-09-12T02:29:04;56.58;;;43.63;;
11006;SDS011;8186;57.652;11.968;2023-09-12T02:31:32;54.35;;;45.03;;
11006;SDS011;8186;57.652;11.968;2023-09-12T02:33:59;57.22;;;45.88;;
11006;SDS011;8186;57.652;11.968;2023-09-12T02:36:26;61.10;;;45.53;;
11006;SDS011;8186;57.652;11.968;2023-09-12T02:38:53;56.35;;;44.17;;
11006;SDS011;8186;57.652;11.968;2023-09-12T02:41:19;54.72;;;45.20;;
11006;SDS011;8186;57.652;11.968;2023-09-12T02:43:48;58.70;;;45.00;;
11006;SDS011;8186;57.652;11.968;2023-09-12T02:46:15;55.78;;;44.38;;
11006;SDS011;8186;57.652;11.968;2023-09-12T02:48:41;58.92;;;44.22;;
11006;SDS011;8186;57.652;11.968;2023-09-12T02:51:08;55.30;;;43.40;;
11006;SDS011;8186;57.652;11.968;2023-09-12T02:53:35;51.28;;;42.47;;
11006;SDS011;8186;57.652;11.968;2023-09-12T02:56:02;47.53;;;39.97;;
11006;SDS011;8186;57.652;11.968;2023-09-12T02:58:29;48.10;;;39.75;;
11006;SDS011;8186;57.652;11.968;2023-09-12T03:00:58;46.70;;;40.13;;
11006;SDS011;8186;57.652;11.968;2023-09-12T03:03:25;53.90;;;39.85;;
11006;SDS011;8186;57.652;11.968;2023-09-12T03:05:58;43.83;;;38.40;;
11006;SDS011;8186;57.652;11.968;2023-09-12T03:08:25;46.90;;;38.47;;
11006;SDS011;8186;57.652;11.968;2023-09-12T03:10:55;46.50;;;37.47;;
11006;SDS011;8186;57.652;11.968;2023-09-12T03:13:23;49.72;;;39.17;;
11006;SDS011;8186;57.652;11.968;2023-09-12T03:15:50;40.05;;;35.08;;
11006;SDS011;8186;57.652;11.968;2023-09-12T03:18:19;41.53;;;35.15;;
11006;SDS011;8186;57.652;11.968;2023-09-12T03:20:46;38.92;;;33.70;;
11006;SDS011;8186;57.652;11.968;2023-09-12T03:23:13;40.15;;;31.73;;
11006;SDS011;8186;57.652;11.968;2023-09-12T03:25:40;44.83;;;32.28;;
11006;SDS011;8186;57.652;11.968;2023-09-12T03:28:07;37.72;;;32.20;;
11006;SDS011;8186;57.652;11.968;2023-09-12T03:30:34;36.40;;;30.83;;
11006;SDS011;8186;57.652;11.968;2023-09-12T03:33:01;36.45;;;29.85;;
11006;SDS011;8186;57.652;11.968;2023-09-12T03:35:30;33.25;;;29.42;;
11006;SDS011;8186;57.652;11.968;2023-09-12T03:37:58;39.42;;;30.23;;
11006;SDS011;8186;57.652;11.968;2023-09-12T03:40:25;33.72;;;29.95;;
11006;SDS011;8186;57.652;11.968;2023-09-12T03:42:54;34.80;;;29.40;;
11006;SDS011;8186;57.652;11.968;2023-09-12T03:45:21;36.13;;;29.50;;
11006;SDS011;8186;57.652;11.968;2023-09-12T03:47:48;31.85;;;27.75;;
11006;SDS011;8186;57.652;11.968;2023-09-12T03:50:15;37.42;;;28.65;;
11006;SDS011;8186;57.652;11.968;2023-09-12T03:52:43;33.78;;;28.85;;
11006;SDS011;8186;57.652;11.968;2023-09-12T03:55:10;32.92;;;27.42;;
11006;SDS011;8186;57.652;11.968;2023-09-12T03:57:37;33.78;;;26.38;;
11006;SDS011;8186;57.652;11.968;2023-09-12T04:00:04;30.77;;;26.55;;
11006;SDS011;8186;57.652;11.968;2023-09-12T04:02:32;31.20;;;27.58;;
11006;SDS011;8186;57.652;11.968;2023-09-12T04:04:59;31.02;;;27.73;;
11006;SDS011;8186;57.652;11.968;2023-09-12T04:07:26;34.15;;;27.63;;
11006;SDS011;8186;57.652;11.968;2023-09-12T04:09:54;35.40;;;27.70;;
11006;SDS011;8186;57.652;11.968;2023-09-12T04:12:21;32.33;;;27.52;;
11006;SDS011;8186;57.652;11.968;2023-09-12T04:14:49;30.75;;;26.92;;
11006;SDS011;8186;57.652;11.968;2023-09-12T04:17:16;31.52;;;27.25;;
11006;SDS011;8186;57.652;11.968;2023-09-12T04:19:43;30.92;;;27.38;;
11006;SDS011;8186;57.652;11.968;2023-09-12T04:22:10;30.48;;;25.88;;
11006;SDS011;8186;57.652;11.968;2023-09-12T04:24:37;35.63;;;27.80;;
11006;SDS011;8186;57.652;11.968;2023-09-12T04:27:05;27.98;;;24.98;;
11006;SDS011;8186;57.652;11.968;2023-09-12T04:29:32;30.75;;;23.38;;
11006;SDS011;8186;57.652;11.968;2023-09-12T04:32:01;24.13;;;20.55;;
11006;SDS011;8186;57.652;11.968;2023-09-12T04:34:28;29.23;;;21.10;;
11006;SDS011;8186;57.652;11.968;2023-09-12T04:36:55;26.90;;;17.90;;
11006;SDS011;8186;57.652;11.968;2023-09-12T04:39:22;22.02;;;17.33;;
11006;SDS011;8186;57.652;11.968;2023-09-12T04:41:49;22.10;;;17.20;;
11006;SDS011;8186;57.652;11.968;2023-09-12T04:44:17;21.08;;;17.38;;
11006;SDS011;8186;57.652;11.968;2023-09-12T04:46:44;17.63;;;15.90;;
11006;SDS011;8186;57.652;11.968;2023-09-12T04:49:11;16.85;;;14.82;;
11006;SDS011;8186;57.652;11.968;2023-09-12T04:51:38;16.27;;;14.60;;
11006;SDS011;8186;57.652;11.968;2023-09-12T04:54:05;16.88;;;13.55;;
11006;SDS011;8186;57.652;11.968;2023-09-12T04:56:32;18.80;;;14.05;;
11006;SDS011;8186;57.652;11.968;2023-09-12T04:58:59;18.25;;;12.90;;
11006;SDS011;8186;57.652;11.968;2023-09-12T05:01:27;18.95;;;12.63;;
11006;SDS011;8186;57.652;11.968;2023-09-12T05:03:54;15.75;;;12.52;;
11006;SDS011;8186;57.652;11.968;2023-09-12T05:06:21;15.13;;;13.48;;
11006;SDS011;8186;57.652;11.968;2023-09-12T05:08:48;15.88;;;14.15;;
11006;SDS011;8186;57.652;11.968;2023-09-12T05:11:15;17.08;;;12.52;;
11006;SDS011;8186;57.652;11.968;2023-09-12T05:13:42;14.23;;;11.95;;
11006;SDS011;8186;57.652;11.968;2023-09-12T05:16:08;14.98;;;12.57;;
11006;SDS011;8186;57.652;11.968;2023-09-12T05:18:37;15.20;;;12.20;;
11006;SDS011;8186;57.652;11.968;2023-09-12T05:21:04;16.55;;;12.15;;
11006;SDS011;8186;57.652;11.968;2023-09-12T05:23:31;15.70;;;12.40;;
11006;SDS011;8186;57.652;11.968;2023-09-12T05:25:58;13.88;;;11.68;;
11006;SDS011;8186;57.652;11.968;2023-09-12T05:28:24;13.25;;;11.90;;
11006;SDS011;8186;57.652;11.968;2023-09-12T05:30:52;15.27;;;12.45;;
11006;SDS011;8186;57.652;11.968;2023-09-12T05:33:18;14.02;;;12.52;;
11006;SDS011;8186;57.652;11.968;2023-09-12T05:35:47;13.77;;;12.40;;
11006;SDS011;8186;57.652;11.968;2023-09-12T05:38:14;19.63;;;12.85;;
11006;SDS011;8186;57.652;11.968;2023-09-12T05:40:41;14.63;;;11.82;;
11006;SDS011;8186;57.652;11.968;2023-09-12T05:43:08;13.55;;;12.27;;
11006;SDS011;8186;57.652;11.968;2023-09-12T05:45:34;16.30;;;12.18;;
11006;SDS011;8186;57.652;11.968;2023-09-12T05:48:01;14.50;;;12.00;;
11006;SDS011;8186;57.652;11.968;2023-09-12T05:50:28;16.63;;;13.15;;
11006;SDS011;8186;57.652;11.968;2023-09-12T05:52:57;17.02;;;12.60;;
11006;SDS011;8186;57.652;11.968;2023-09-12T05:55:23;14.65;;;13.10;;
11006;SDS011;8186;57.652;11.968;2023-09-12T05:57:51;16.50;;;13.77;;
11006;SDS011;8186;57.652;11.968;2023-09-12T06:00:18;19.70;;;13.07;;
11006;SDS011;8186;57.652;11.968;2023-09-12T06:02:45;14.30;;;12.50;;
11006;SDS011;8186;57.652;11.968;2023-09-12T06:05:13;15.00;;;12.88;;
11006;SDS011;8186;57.652;11.968;2023-09-12T06:07:40;19.83;;;13.57;;
11006;SDS011;8186;57.652;11.968;2023-09-12T06:10:08;17.20;;;13.57;;
11006;SDS011;8186;57.652;11.968;2023-09-12T06:12:36;15.75;;;13.18;;
11006;SDS011;8186;57.652;11.968;2023-09-12T06:15:03;16.48;;;13.63;;
11006;SDS011;8186;57.652;11.968;2023-09-12T06:17:30;16.83;;;13.43;;
11006;SDS011;8186;57.652;11.968;2023-09-12T06:19:57;15.38;;;13.10;;
11006;SDS011;8186;57.652;11.968;2023-09-12T06:22:24;14.73;;;13.20;;
11006;SDS011;8186;57.652;11.968;2023-09-12T06:24:51;14.15;;;12.75;;
11006;SDS011;8186;57.652;11.968;2023-09-12T06:27:20;17.00;;;12.43;;
11006;SDS011;8186;57.652;11.968;2023-09-12T06:29:47;17.10;;;12.20;;
11006;SDS011;8186;57.652;11.968;2023-09-12T06:32:14;14.38;;;12.25;;
11006;SDS011;8186;57.652;11.968;2023-09-12T06:34:42;21.48;;;14.23;;
11006;SDS011;8186;57.652;11.968;2023-09-12T06:37:10;13.45;;;11.85;;
11006;SDS011;8186;57.652;11.968;2023-09-12T06:39:37;16.17;;;13.30;;
11006;SDS011;8186;57.652;11.968;2023-09-12T06:42:04;15.68;;;12.88;;
11006;SDS011;8186;57.652;11.968;2023-09-12T06:44:33;14.98;;;11.95;;
11006;SDS011;8186;57.652;11.968;2023-09-12T06:47:00;16.05;;;12.32;;
11006;SDS011;8186;57.652;11.968;2023-09-12T06:49:26;14.82;;;12.57;;
11006;SDS011;8186;57.652;11.968;2023-09-12T06:51:53;13.07;;;11.77;;
11006;SDS011;8186;57.652;11.968;2023-09-12T06:54:20;13.20;;;11.70;;
11006;SDS011;8186;57.652;11.968;2023-09-12T06:56:47;14.85;;;12.35;;
11006;SDS011;8186;57.652;11.968;2023-09-12T06:59:14;14.93;;;11.38;;
11006;SDS011;8186;57.652;11.968;2023-09-12T07:01:42;15.88;;;12.02;;
11006;SDS011;8186;57.652;11.968;2023-09-12T07:04:10;16.77;;;12.43;;
11006;SDS011;8186;57.652;11.968;2023-09-12T07:06:37;13.40;;;11.82;;
11006;SDS011;8186;57.652;11.968;2023-09-12T07:09:04;17.00;;;11.90;;
11006;SDS011;8186;57.652;11.968;2023-09-12T07:11:33;12.65;;;11.40;;
11006;SDS011;8186;57.652;11.968;2023-09-12T07:14:00;14.43;;;12.07;;
11006;SDS011;8186;57.652;11.968;2023-09-12T07:16:29;13.38;;;11.35;;
11006;SDS011;8186;57.652;11.968;2023-09-12T07:18:58;13.45;;;11.55;;
11006;SDS011;8186;57.652;11.968;2023-09-12T07:21:25;13.80;;;11.85;;
11006;SDS011;8186;57.652;11.968;2023-09-12T07:23:52;13.40;;;12.10;;
11006;SDS011;8186;57.652;11.968;2023-09-12T07:26:19;14.65;;;11.73;;
11006;SDS011;8186;57.652;11.968;2023-09-12T07:28:46;14.85;;;11.52;;
11006;SDS011;8186;57.652;11.968;2023-09-12T07:31:12;12.82;;;11.55;;
11006;SDS011;8186;57.652;11.968;2023-09-12T07:33:40;12.77;;;10.95;;
11006;SDS011;8186;57.652;11.968;2023-09-12T07:36:08;12.93;;;11.10;;
11006;SDS011;8186;57.652;11.968;2023-09-12T07:38:36;14.57;;;11.40;;
11006;SDS011;8186;57.652;11.968;2023-09-12T07:41:03;13.45;;;11.30;;
11006;SDS011;8186;57.652;11.968;2023-09-12T07:43:30;12.80;;;11.50;;
11006;SDS011;8186;57.652;11.968;2023-09-12T07:45:57;14.82;;;11.18;;
11006;SDS011;8186;57.652;11.968;2023-09-12T07:48:24;15.32;;;10.90;;
11006;SDS011;8186;57.652;11.968;2023-09-12T07:50:51;15.68;;;11.88;;
11006;SDS011;8186;57.652;11.968;2023-09-12T07:53:20;13.68;;;12.02;;
11006;SDS011;8186;57.652;11.968;2023-09-12T07:55:47;14.02;;;12.32;;
11006;SDS011;8186;57.652;11.968;2023-09-12T07:58:16;14.02;;;12.45;;
11006;SDS011;8186;57.652;11.968;2023-09-12T08:00:44;13.98;;;12.38;;
11006;SDS011;8186;57.652;11.968;2023-09-12T08:03:11;13.68;;;11.73;;
11006;SDS011;8186;57.652;11.968;2023-09-12T08:05:38;14.27;;;11.57;;
11006;SDS011;8186;57.652;11.968;2023-09-12T08:08:05;12.40;;;11.18;;
11006;SDS011;8186;57.652;11.968;2023-09-12T08:10:33;13.40;;;11.70;;
11006;SDS011;8186;57.652;11.968;2023-09-12T08:13:00;18.85;;;12.18;;
11006;SDS011;8186;57.652;11.968;2023-09-12T08:15:27;14.20;;;11.55;;
11006;SDS011;8186;57.652;11.968;2023-09-12T08:17:54;14.25;;;11.77;;
11006;SDS011;8186;57.652;11.968;2023-09-12T08:20:21;14.73;;;11.90;;
11006;SDS011;8186;57.652;11.968;2023-09-12T08:22:48;14.10;;;12.32;;
11006;SDS011;8186;57.652;11.968;2023-09-12T08:25:15;14.65;;;12.13;;
11006;SDS011;8186;57.652;11.968;2023-09-12T08:27:43;16.00;;;12.65;;
11006;SDS011;8186;57.652;11.968;2023-09-12T08:30:11;16.25;;;13.15;;
11006;SDS011;8186;57.652;11.968;2023-09-12T08:32:39;14.63;;;13.15;;
11006;SDS011;8186;57.652;11.968;2023-09-12T08:35:09;16.67;;;13.07;;
11006;SDS011;8186;57.652;11.968;2023-09-12T08:37:37;15.60;;;14.05;;
11006;SDS011;8186;57.652;11.968;2023-09-12T08:40:05;17.25;;;14.50;;
11006;SDS011;8186;57.652;11.968;2023-09-12T08:42:35;17.55;;;15.55;;
11006;SDS011;8186;57.652;11.968;2023-09-12T08:45:08;16.60;;;14.90;;
11006;SDS011;8186;57.652;11.968;2023-09-12T08:47:39;20.02;;;16.13;;
11006;SDS011;8186;57.652;11.968;2023-09-12T08:50:08;19.33;;;15.90;;
11006;SDS011;8186;57.652;11.968;2023-09-12T08:52:37;20.75;;;15.43;;
11006;SDS011;8186;57.652;11.968;2023-09-12T08:55:04;17.98;;;15.35;;
11006;SDS011;8186;57.652;11.968;2023-09-12T08:57:32;20.65;;;15.20;;
11006;SDS011;8186;57.652;11.968;2023-09-12T09:00:00;15.63;;;14.05;;
11006;SDS011;8186;57.652;11.968;2023-09-12T09:02:31;20.30;;;14.73;;
11006;SDS011;8186;57.652;11.968;2023-09-12T09:04:58;15.63;;;14.00;;
11006;SDS011;8186;57.652;11.968;2023-09-12T09:07:25;17.17;;;13.27;;
11006;SDS011;8186;57.652;11.968;2023-09-12T09:09:54;19.08;;;15.05;;
11006;SDS011;8186;57.652;11.968;2023-09-12T09:12:21;18.85;;;14.88;;
11006;SDS011;8186;57.652;11.968;2023-09-12T09:14:48;22.85;;;15.57;;
11006;SDS011;8186;57.652;11.968;2023-09-12T09:17:15;17.73;;;15.68;;
11006;SDS011;8186;57.652;11.968;2023-09-12T09:19:44;19.13;;;16.88;;
11006;SDS011;8186;57.652;11.968;2023-09-12T09:22:11;17.80;;;15.90;;
11006;SDS011;8186;57.652;11.968;2023-09-12T09:24:38;17.30;;;14.60;;
11006;SDS011;8186;57.652;11.968;2023-09-12T09:27:05;18.02;;;14.75;;
11006;SDS011;8186;57.652;11.968;2023-09-12T09:29:32;16.25;;;14.38;;
11006;SDS011;8186;57.652;11.968;2023-09-12T09:32:16;13.38;;;12.10;;
11006;SDS011;8186;57.652;11.968;2023-09-12T09:34:45;13.85;;;11.10;;
11006;SDS011;8186;57.652;11.968;2023-09-12T09:37:12;14.77;;;11.63;;
11006;SDS011;8186;57.652;11.968;2023-09-12T09:39:40;14.60;;;11.57;;
11006;SDS011;8186;57.652;11.968;2023-09-12T09:42:09;15.30;;;11.23;;
11006;SDS011;8186;57.652;11.968;2023-09-12T09:44:37;10.75;;;9.65;;
11006;SDS011;8186;57.652;11.968;2023-09-12T09:47:04;11.82;;;10.57;;
11006;SDS011;8186;57.652;11.968;2023-09-12T09:49:31;15.50;;;10.40;;
11006;SDS011;8186;57.652;11.968;2023-09-12T09:52:00;12.13;;;9.13;;
11006;SDS011;8186;57.652;11.968;2023-09-12T09:54:30;12.23;;;7.72;;
11006;SDS011;8186;57.652;11.968;2023-09-12T09:56:57;10.80;;;7.40;;
11006;SDS011;8186;57.652;11.968;2023-09-12T09:59:24;11.63;;;6.25;;
11006;SDS011;8186;57.652;11.968;2023-09-12T10:01:54;10.27;;;6.45;;
11006;SDS011;8186;57.652;11.968;2023-09-12T10:04:22;9.85;;;5.80;;
11006;SDS011;8186;57.652;11.968;2023-09-12T10:06:49;11.43;;;5.75;;
11006;SDS011;8186;57.652;11.968;2023-09-12T10:09:18;8.55;;;5.93;;
11006;SDS011;8186;57.652;11.968;2023-09-12T10:11:49;10.85;;;6.00;;
11006;SDS011;8186;57.652;11.968;2023-09-12T10:14:18;11.35;;;5.80;;
11006;SDS011;8186;57.652;11.968;2023-09-12T10:16:46;10.93;;;5.47;;
11006;SDS011;8186;57.652;11.968;2023-09-12T10:19:15;8.02;;;5.00;;
11006;SDS011;8186;57.652;11.968;2023-09-12T10:21:45;9.80;;;5.78;;
11006;SDS011;8186;57.652;11.968;2023-09-12T10:24:14;10.50;;;6.90;;
11006;SDS011;8186;57.652;11.968;2023-09-12T10:26:44;14.98;;;7.43;;
11006;SDS011;8186;57.652;11.968;2023-09-12T10:29:12;10.25;;;6.28;;
11006;SDS011;8186;57.652;11.968;2023-09-12T10:31:40;10.05;;;6.50;;
11006;SDS011;8186;57.652;11.968;2023-09-12T10:34:08;8.63;;;6.72;;
11006;SDS011;8186;57.652;11.968;2023-09-12T10:36:38;8.93;;;6.25;;
11006;SDS011;8186;57.652;11.968;2023-09-12T10:39:06;11.20;;;5.88;;
11006;SDS011;8186;57.652;11.968;2023-09-12T10:44:05;10.07;;;5.30;;
11006;SDS011;8186;57.652;11.968;2023-09-12T10:46:35;9.68;;;4.55;;
11006;SDS011;8186;57.652;11.968;2023-09-12T10:49:02;11.27;;;4.95;;
11006;SDS011;8186;57.652;11.968;2023-09-12T10:51:30;9.32;;;5.20;;
11006;SDS011;8186;57.652;11.968;2023-09-12T10:53:58;11.50;;;4.20;;
11006;SDS011;8186;57.652;11.968;2023-09-12T10:56:24;9.05;;;3.83;;
11006;SDS011;8186;57.652;11.968;2023-09-12T10:59:11;7.25;;;3.80;;
11006;SDS011;8186;57.652;11.968;2023-09-12T11:01:40;10.55;;;4.10;;
11006;SDS011;8186;57.652;11.968;2023-09-12T11:06:58;7.35;;;3.70;;
11006;SDS011;8186;57.652;11.968;2023-09-12T11:09:25;6.32;;;2.75;;
11006;SDS011;8186;57.652;11.968;2023-09-12T11:11:54;6.18;;;2.50;;
11006;SDS011;8186;57.652;11.968;2023-09-12T11:14:24;4.45;;;2.63;;
11006;SDS011;8186;57.652;11.968;2023-09-12T11:19:47;3.35;;;2.08;;
11006;SDS011;8186;57.652;11.968;2023-09-12T11:22:23;4.53;;;1.83;;
11006;SDS011;8186;57.652;11.968;2023-09-12T11:24:51;2.55;;;1.35;;
11006;SDS011;8186;57.652;11.968;2023-09-12T11:27:20;3.60;;;1.50;;
11006;SDS011;8186;57.652;11.968;2023-09-12T11:29:48;4.43;;;1.77;;
11006;SDS011;8186;57.652;11.968;2023-09-12T11:32:25;2.60;;;1.45;;
11006;SDS011;8186;57.652;11.968;2023-09-12T11:34:57;3.95;;;1.70;;
11006;SDS011;8186;57.652;11.968;2023-09-12T11:37:26;4.38;;;1.45;;
11006;SDS011;8186;57.652;11.968;2023-09-12T11:39:54;3.40;;;1.20;;
11006;SDS011;8186;57.652;11.968;2023-09-12T11:42:22;4.22;;;1.58;;
11006;SDS011;8186;57.652;11.968;2023-09-12T11:44:52;4.40;;;1.40;;
11006;SDS011;8186;57.652;11.968;2023-09-12T11:47:19;3.83;;;1.20;;
11006;SDS011;8186;57.652;11.968;2023-09-12T11:49:46;2.90;;;1.10;;
11006;SDS011;8186;57.652;11.968;2023-09-12T11:52:14;5.43;;;1.38;;
11006;SDS011;8186;57.652;11.968;2023-09-12T11:54:42;2.28;;;1.15;;
11006;SDS011;8186;57.652;11.968;2023-09-12T11:57:10;2.38;;;1.20;;
11006;SDS011;8186;57.652;11.968;2023-09-12T11:59:40;4.68;;;1.33;;
11006;SDS011;8186;57.652;11.968;2023-09-12T12:02:10;2.42;;;1.20;;
11006;SDS011;8186;57.652;11.968;2023-09-12T12:04:37;4.88;;;1.00;;
11006;SDS011;8186;57.652;11.968;2023-09-12T12:07:05;2.35;;;1.17;;
11006;SDS011;8186;57.652;11.968;2023-09-12T12:09:32;3.22;;;1.23;;
11006;SDS011;8186;57.652;11.968;2023-09-12T12:12:03;2.88;;;1.02;;
11006;SDS011;8186;57.652;11.968;2023-09-12T12:14:33;4.07;;;1.20;;
11006;SDS011;8186;57.652;11.968;2023-09-12T12:17:05;4.18;;;1.50;;
11006;SDS011;8186;57.652;11.968;2023-09-12T12:19:35;5.65;;;1.70;;
11006;SDS011;8186;57.652;11.968;2023-09-12T12:22:03;3.97;;;1.67;;
11006;SDS011;8186;57.652;11.968;2023-09-12T12:24:36;6.15;;;1.80;;
11006;SDS011;8186;57.652;11.968;2023-09-12T12:27:03;5.78;;;1.95;;
11006;SDS011;8186;57.652;11.968;2023-09-12T12:29:30;5.40;;;1.52;;
11006;SDS011;8186;57.652;11.968;2023-09-12T12:31:59;6.28;;;1.67;;
11006;SDS011;8186;57.652;11.968;2023-09-12T12:34:26;6.60;;;1.60;;
11006;SDS011;8186;57.652;11.968;2023-09-12T12:36:55;6.93;;;2.05;;
11006;SDS011;8186;57.652;11.968;2023-09-12T12:39:22;6.05;;;1.92;;
11006;SDS011;8186;57.652;11.968;2023-09-12T12:41:51;8.77;;;1.98;;
11006;SDS011;8186;57.652;11.968;2023-09-12T12:44:18;5.53;;;2.03;;
11006;SDS011;8186;57.652;11.968;2023-09-12T12:46:48;4.55;;;2.08;;
11006;SDS011;8186;57.652;11.968;2023-09-12T12:49:17;4.22;;;1.95;;
11006;SDS011;8186;57.652;11.968;2023-09-12T12:51:44;5.13;;;2.08;;
11006;SDS011;8186;57.652;11.968;2023-09-12T12:54:13;7.00;;;2.25;;
11006;SDS011;8186;57.652;11.968;2023-09-12T12:56:40;6.38;;;1.92;;
11006;SDS011;8186;57.652;11.968;2023-09-12T12:59:07;4.70;;;2.08;;
11006;SDS011;8186;57.652;11.968;2023-09-12T13:01:35;6.88;;;1.90;;
11006;SDS011;8186;57.652;11.968;2023-09-12T13:04:04;6.07;;;2.17;;
11006;SDS011;8186;57.652;11.968;2023-09-12T13:06:32;5.78;;;2.10;;
11006;SDS011;8186;57.652;11.968;2023-09-12T13:09:01;6.00;;;2.25;;
11006;SDS011;8186;57.652;11.968;2023-09-12T13:11:31;6.03;;;2.15;;
11006;SDS011;8186;57.652;11.968;2023-09-12T13:13:59;5.35;;;2.13;;
11006;SDS011;8186;57.652;11.968;2023-09-12T13:16:27;8.15;;;2.17;;
11006;SDS011;8186;57.652;11.968;2023-09-12T13:18:54;8.43;;;2.10;;
11006;SDS011;8186;57.652;11.968;2023-09-12T13:21:21;8.65;;;1.85;;
11006;SDS011;8186;57.652;11.968;2023-09-12T13:23:48;6.25;;;1.83;;
11006;SDS011;8186;57.652;11.968;2023-09-12T13:26:15;7.18;;;1.95;;
11006;SDS011;8186;57.652;11.968;2023-09-12T13:28:43;7.25;;;1.92;;
11006;SDS011;8186;57.652;11.968;2023-09-12T13:31:10;5.70;;;1.60;;
11006;SDS011;8186;57.652;11.968;2023-09-12T13:33:38;6.60;;;1.75;;
11006;SDS011;8186;57.652;11.968;2023-09-12T13:36:05;6.72;;;1.80;;
11006;SDS011;8186;57.652;11.968;2023-09-12T13:38:32;5.03;;;1.45;;
11006;SDS011;8186;57.652;11.968;2023-09-12T13:40:59;5.18;;;1.67;;
11006;SDS011;8186;57.652;11.968;2023-09-12T13:43:26;4.85;;;1.38;;
11006;SDS011;8186;57.652;11.968;2023-09-12T13:45:55;5.57;;;1.30;;
11006;SDS011;8186;57.652;11.968;2023-09-12T13:48:21;3.88;;;1.27;;
11006;SDS011;8186;57.652;11.968;2023-09-12T13:50:48;4.00;;;1.35;;
11006;SDS011;8186;57.652;11.968;2023-09-12T13:53:15;4.15;;;1.50;;
11006;SDS011;8186;57.652;11.968;2023-09-12T13:55:42;2.90;;;1.48;;
11006;SDS011;8186;57.652;11.968;2023-09-12T13:58:09;3.90;;;1.45;;
11006;SDS011;8186;57.652;11.968;2023-09-12T14:00:35;2.30;;;1.30;;
11006;SDS011;8186;57.652;11.968;2023-09-12T14:03:04;2.75;;;1.30;;
11006;SDS011;8186;57.652;11.968;2023-09-12T14:05:31;4.82;;;1.45;;
11006;SDS011;8186;57.652;11.968;2023-09-12T14:07:58;3.90;;;1.40;;
11006;SDS011;8186;57.652;11.968;2023-09-12T14:10:24;3.03;;;1.30;;
11006;SDS011;8186;57.652;11.968;2023-09-12T14:12:51;1.90;;;1.20;;
11006;SDS011;8186;57.652;11.968;2023-09-12T14:15:18;4.60;;;1.63;;
11006;SDS011;8186;57.652;11.968;2023-09-12T14:17:45;3.17;;;1.17;;
11006;SDS011;8186;57.652;11.968;2023-09-12T14:20:13;2.92;;;1.42;;
11006;SDS011;8186;57.652;11.968;2023-09-12T14:22:41;3.88;;;1.48;;
11006;SDS011;8186;57.652;11.968;2023-09-12T14:25:09;4.47;;;1.20;;
11006;SDS011;8186;57.652;11.968;2023-09-12T14:27:40;3.83;;;1.50;;
11006;SDS011;8186;57.652;11.968;2023-09-12T14:30:08;3.63;;;1.08;;
11006;SDS011;8186;57.652;11.968;2023-09-12T14:32:36;4.28;;;1.25;;
11006;SDS011;8186;57.652;11.968;2023-09-12T14:35:04;5.15;;;1.50;;
11006;SDS011;8186;57.652;11.968;2023-09-12T14:37:33;2.72;;;1.30;;
11006;SDS011;8186;57.652;11.968;2023-09-12T14:40:02;4.30;;;1.48;;
11006;SDS011;8186;57.652;11.968;2023-09-12T14:42:30;4.72;;;1.33;;